Rheinfels — V2AI4 — position and weather

sailwx.info

Track history (hours):
 
Tides and Currents Weather Stations Pressure Air Temp Water Temp Dewpoint Dewpoint Depression Visibility Wind Speed Wind Dir Waves Ship Positions

Rheinfels

Last reported at 2016-May-23 15:33 UTC. Time now 2016-Jul-23 13:14 UTC.
Position N 40°51' E 029°17'.
Warning: this ship's position is months out of date.

; draft 5.1 m.

Type: Cargo ship. MMSI: 304010767.

Date/timePositionNaut miles runAvg speedWind from/ knotsBaromVisibWave heightAir tempDewpointWater temp
2016-May-23 15:33N 40°51' E 029°17'0 0.0
2016-May-23 14:33N 40°51' E 029°17'0 0.0
2016-May-23 13:33N 40°51' E 029°17'2 1.9
2016-May-23 12:33N 40°51' E 029°15'1 1.0
2016-May-23 11:25N 40°50' E 029°15'0 0.0
2016-May-23 10:31N 40°50' E 029°15'0 0.0
2016-May-23 09:31N 40°50' E 029°15'0 0.0
2016-May-23 08:31N 40°50' E 029°15'0 0.0
2016-May-23 07:25N 40°50' E 029°15'0 0.0
2016-May-23 06:31N 40°50' E 029°15'0 0.0
2016-May-23 05:25N 40°50' E 029°15'0 0.0
2016-May-23 04:31N 40°50' E 029°15'0 0.0
2016-May-23 03:31N 40°50' E 029°15'0 0.0
2016-May-23 02:31N 40°50' E 029°15'0 0.0
2016-May-23 01:31N 40°50' E 029°15'0 0.0
2016-May-23 00:31N 40°50' E 029°15'0 0.0
2016-May-22 23:19N 40°50' E 029°15'0 0.0
2016-May-22 22:31N 40°50' E 029°15'0 0.0
2016-May-22 20:31N 40°50' E 029°15'0 0.0
2016-May-22 19:31N 40°50' E 029°15'0 0.0
2016-May-22 18:25N 40°50' E 029°15'0 0.0
2016-May-22 17:31N 40°50' E 029°15'0 0.0
2016-May-22 16:31N 40°50' E 029°15'0 0.0
2016-May-22 15:31N 40°50' E 029°15'0 0.0
2016-May-22 14:31N 40°50' E 029°15'0 0.0
2016-May-22 13:31N 40°50' E 029°15'0 0.1
2016-May-22 12:31N 40°50' E 029°15'0 0.0
2016-May-22 11:31N 40°50' E 029°15'0 0.0
2016-May-22 10:31N 40°50' E 029°15'0 0.0
2016-May-22 09:31N 40°50' E 029°15'0 0.0
2016-May-22 08:31N 40°50' E 029°15'0 0.0
2016-May-22 07:31N 40°50' E 029°15'0 0.0
2016-May-22 06:31N 40°50' E 029°15'0 0.0
2016-May-22 05:31N 40°50' E 029°15'0 0.0
2016-May-22 04:31N 40°50' E 029°15'0 0.0
2016-May-22 03:31N 40°50' E 029°15'0 0.0
2016-May-22 02:31N 40°50' E 029°15'0 0.0
2016-May-22 01:25N 40°50' E 029°15'0 0.0
2016-May-22 00:31N 40°50' E 029°15'0 0.0
2016-May-21 23:31N 40°50' E 029°15'0 0.0
2016-May-21 22:31N 40°50' E 029°15'0 0.0
2016-May-21 21:31N 40°50' E 029°15'0 0.0
2016-May-21 20:31N 40°50' E 029°15'0 0.0
2016-May-21 19:31N 40°50' E 029°15'0 0.0
2016-May-21 18:31N 40°50' E 029°15'0 0.0
2016-May-21 17:19N 40°50' E 029°15'0 0.0
2016-May-21 16:31N 40°50' E 029°15'0 0.0
2016-May-21 15:31N 40°50' E 029°15'0 0.0
2016-May-21 14:31N 40°50' E 029°15'0 0.0
2016-May-21 13:31N 40°50' E 029°15'0 0.0
2016-May-21 12:25N 40°50' E 029°15'0 0.1
2016-May-21 11:33N 40°50' E 029°15'7 7.3
2016-May-21 10:32N 40°45' E 029°22'8 7.7
2016-May-21 09:27N 40°46' E 029°33'0 0.0
2016-May-21 08:33N 40°46' E 029°33'3 0.2
2016-May-20 15:27N 40°45' E 029°30'2 1.1
2016-May-20 13:10N 40°46' E 029°26'0 0.0
2016-May-20 11:28N 40°46' E 029°26'0 0.0
2016-May-20 09:04N 40°46' E 029°26'0 0.0
2016-May-20 08:10N 40°46' E 029°26'0 0.0
2016-May-20 06:28N 40°46' E 029°26'0 0.0
2016-May-20 03:04N 40°46' E 029°26'0 0.0
2016-May-20 02:28N 40°46' E 029°26'0 0.0
2016-May-19 08:16N 40°46' E 029°26'0 0.0
2016-May-19 04:22N 40°46' E 029°26'0 0.0
2016-May-19 02:28N 40°46' E 029°26'0 0.0
2016-May-19 01:28N 40°46' E 029°26'0 0.0
2016-May-19 00:28N 40°46' E 029°26'4 4.8
2016-May-18 23:33N 40°43' E 029°22'8 7.7
2016-May-18 22:32N 40°42' E 029°11'1110.8
2016-May-18 21:32N 40°41' E 028°57'  
2016-May-15 03:13N 36°45' E 023°36'6 9.7
2016-May-15 02:33N 36°40' E 023°31'13 9.8
2016-May-15 01:15N 36°30' E 023°21'  
Track history (hours):
 
Tides and Currents Weather Stations Pressure Air Temp Water Temp Dewpoint Dewpoint Depression Visibility Wind Speed Wind Dir Waves Ship Positions

Rheinfels

Last reported at 2016-May-23 15:33 UTC. Time now 2016-Jul-23 13:14 UTC.
Position N 40°51' E 029°17'.
Warning: this ship's position is months out of date.

; draft 5.1 m.

Type: Cargo ship. MMSI: 304010767.

Date/timePositionNaut miles runAvg speedWind from/ knotsBaromVisibWave heightAir tempDewpointWater temp
2016-May-23 15:33N 40°51' E 029°17'0 0.0
2016-May-23 14:33N 40°51' E 029°17'0 0.0
2016-May-23 13:33N 40°51' E 029°17'2 1.9
2016-May-23 12:33N 40°51' E 029°15'1 1.0
2016-May-23 11:25N 40°50' E 029°15'0 0.0
2016-May-23 10:31N 40°50' E 029°15'0 0.0
2016-May-23 09:31N 40°50' E 029°15'0 0.0
2016-May-23 08:31N 40°50' E 029°15'0 0.0
2016-May-23 07:25N 40°50' E 029°15'0 0.0
2016-May-23 06:31N 40°50' E 029°15'0 0.0
2016-May-23 05:25N 40°50' E 029°15'0 0.0
2016-May-23 04:31N 40°50' E 029°15'0 0.0
2016-May-23 03:31N 40°50' E 029°15'0 0.0
2016-May-23 02:31N 40°50' E 029°15'0 0.0
2016-May-23 01:31N 40°50' E 029°15'0 0.0
2016-May-23 00:31N 40°50' E 029°15'0 0.0
2016-May-22 23:19N 40°50' E 029°15'0 0.0
2016-May-22 22:31N 40°50' E 029°15'0 0.0
2016-May-22 20:31N 40°50' E 029°15'0 0.0
2016-May-22 19:31N 40°50' E 029°15'0 0.0
2016-May-22 18:25N 40°50' E 029°15'0 0.0
2016-May-22 17:31N 40°50' E 029°15'0 0.0
2016-May-22 16:31N 40°50' E 029°15'0 0.0
2016-May-22 15:31N 40°50' E 029°15'0 0.0
2016-May-22 14:31N 40°50' E 029°15'0 0.0
2016-May-22 13:31N 40°50' E 029°15'0 0.1
2016-May-22 12:31N 40°50' E 029°15'0 0.0
2016-May-22 11:31N 40°50' E 029°15'0 0.0
2016-May-22 10:31N 40°50' E 029°15'0 0.0
2016-May-22 09:31N 40°50' E 029°15'0 0.0
2016-May-22 08:31N 40°50' E 029°15'0 0.0
2016-May-22 07:31N 40°50' E 029°15'0 0.0
2016-May-22 06:31N 40°50' E 029°15'0 0.0
2016-May-22 05:31N 40°50' E 029°15'0 0.0
2016-May-22 04:31N 40°50' E 029°15'0 0.0
2016-May-22 03:31N 40°50' E 029°15'0 0.0
2016-May-22 02:31N 40°50' E 029°15'0 0.0
2016-May-22 01:25N 40°50' E 029°15'0 0.0
2016-May-22 00:31N 40°50' E 029°15'0 0.0
2016-May-21 23:31N 40°50' E 029°15'0 0.0
2016-May-21 22:31N 40°50' E 029°15'0 0.0
2016-May-21 21:31N 40°50' E 029°15'0 0.0
2016-May-21 20:31N 40°50' E 029°15'0 0.0
2016-May-21 19:31N 40°50' E 029°15'0 0.0
2016-May-21 18:31N 40°50' E 029°15'0 0.0
2016-May-21 17:19N 40°50' E 029°15'0 0.0
2016-May-21 16:31N 40°50' E 029°15'0 0.0
2016-May-21 15:31N 40°50' E 029°15'0 0.0
2016-May-21 14:31N 40°50' E 029°15'0 0.0
2016-May-21 13:31N 40°50' E 029°15'0 0.0
2016-May-21 12:25N 40°50' E 029°15'0 0.1
2016-May-21 11:33N 40°50' E 029°15'7 7.3
2016-May-21 10:32N 40°45' E 029°22'8 7.7
2016-May-21 09:27N 40°46' E 029°33'0 0.0
2016-May-21 08:33N 40°46' E 029°33'3 0.2
2016-May-20 15:27N 40°45' E 029°30'2 1.1
2016-May-20 13:10N 40°46' E 029°26'0 0.0
2016-May-20 11:28N 40°46' E 029°26'0 0.0
2016-May-20 09:04N 40°46' E 029°26'0 0.0
2016-May-20 08:10N 40°46' E 029°26'0 0.0
2016-May-20 06:28N 40°46' E 029°26'0 0.0
2016-May-20 03:04N 40°46' E 029°26'0 0.0
2016-May-20 02:28N 40°46' E 029°26'0 0.0
2016-May-19 08:16N 40°46' E 029°26'0 0.0
2016-May-19 04:22N 40°46' E 029°26'0 0.0
2016-May-19 02:28N 40°46' E 029°26'0 0.0
2016-May-19 01:28N 40°46' E 029°26'0 0.0
2016-May-19 00:28N 40°46' E 029°26'4 4.8
2016-May-18 23:33N 40°43' E 029°22'8 7.7
2016-May-18 22:32N 40°42' E 029°11'1110.8
2016-May-18 21:32N 40°41' E 028°57'  
2016-May-15 03:13N 36°45' E 023°36'6 9.7
2016-May-15 02:33N 36°40' E 023°31'13 9.8
2016-May-15 01:15N 36°30' E 023°21'  

Dump ship's entire track history